sensor_id;sensor_type;location;lat;lon;timestamp;P1;durP1;ratioP1;P2;durP2;ratioP2
5054;SDS011;13829;48.990;8.346;2023-12-22T00:02:22;7.60;;;2.60;;
5054;SDS011;13829;48.990;8.346;2023-12-22T00:04:50;6.53;;;2.50;;
5054;SDS011;13829;48.990;8.346;2023-12-22T00:07:17;9.23;;;2.53;;
5054;SDS011;13829;48.990;8.346;2023-12-22T00:09:47;7.23;;;3.10;;
5054;SDS011;13829;48.990;8.346;2023-12-22T00:12:14;8.43;;;1.90;;
5054;SDS011;13829;48.990;8.346;2023-12-22T00:14:41;4.60;;;1.70;;
5054;SDS011;13829;48.990;8.346;2023-12-22T00:17:08;6.93;;;1.77;;
5054;SDS011;13829;48.990;8.346;2023-12-22T00:19:35;5.80;;;1.73;;
5054;SDS011;13829;48.990;8.346;2023-12-22T00:22:02;8.37;;;1.67;;
5054;SDS011;13829;48.990;8.346;2023-12-22T00:24:29;6.43;;;2.30;;
5054;SDS011;13829;48.990;8.346;2023-12-22T00:26:57;4.43;;;1.53;;
5054;SDS011;13829;48.990;8.346;2023-12-22T00:29:24;4.03;;;1.83;;
5054;SDS011;13829;48.990;8.346;2023-12-22T00:31:53;3.90;;;1.63;;
5054;SDS011;13829;48.990;8.346;2023-12-22T00:34:21;5.70;;;1.60;;
5054;SDS011;13829;48.990;8.346;2023-12-22T00:36:48;5.13;;;1.50;;
5054;SDS011;13829;48.990;8.346;2023-12-22T00:39:15;6.60;;;2.23;;
5054;SDS011;13829;48.990;8.346;2023-12-22T00:41:42;5.10;;;1.37;;
5054;SDS011;13829;48.990;8.346;2023-12-22T00:44:11;4.17;;;1.40;;
5054;SDS011;13829;48.990;8.346;2023-12-22T00:46:37;6.37;;;1.90;;
5054;SDS011;13829;48.990;8.346;2023-12-22T00:49:04;4.13;;;1.60;;
5054;SDS011;13829;48.990;8.346;2023-12-22T00:51:32;4.97;;;1.77;;
5054;SDS011;13829;48.990;8.346;2023-12-22T00:53:59;3.70;;;1.60;;
5054;SDS011;13829;48.990;8.346;2023-12-22T00:56:26;5.43;;;1.60;;
5054;SDS011;13829;48.990;8.346;2023-12-22T00:58:53;2.53;;;1.27;;
5054;SDS011;13829;48.990;8.346;2023-12-22T01:01:21;3.70;;;1.10;;
5054;SDS011;13829;48.990;8.346;2023-12-22T01:03:48;4.57;;;1.30;;
5054;SDS011;13829;48.990;8.346;2023-12-22T01:06:15;5.00;;;1.33;;
5054;SDS011;13829;48.990;8.346;2023-12-22T01:08:42;3.87;;;1.50;;
5054;SDS011;13829;48.990;8.346;2023-12-22T01:11:09;4.20;;;1.77;;
5054;SDS011;13829;48.990;8.346;2023-12-22T01:13:36;4.37;;;1.53;;
5054;SDS011;13829;48.990;8.346;2023-12-22T01:16:03;2.67;;;1.07;;
5054;SDS011;13829;48.990;8.346;2023-12-22T01:18:31;3.00;;;1.00;;
5054;SDS011;13829;48.990;8.346;2023-12-22T01:20:58;3.17;;;1.33;;
5054;SDS011;13829;48.990;8.346;2023-12-22T01:23:26;5.53;;;1.17;;
5054;SDS011;13829;48.990;8.346;2023-12-22T01:25:53;4.83;;;1.10;;
5054;SDS011;13829;48.990;8.346;2023-12-22T01:28:20;2.17;;;1.10;;
5054;SDS011;13829;48.990;8.346;2023-12-22T01:30:46;3.97;;;1.00;;
5054;SDS011;13829;48.990;8.346;2023-12-22T01:33:13;2.83;;;1.10;;
5054;SDS011;13829;48.990;8.346;2023-12-22T01:35:42;1.57;;;0.80;;
5054;SDS011;13829;48.990;8.346;2023-12-22T01:38:09;2.10;;;1.00;;
5054;SDS011;13829;48.990;8.346;2023-12-22T01:40:36;3.30;;;0.80;;
5054;SDS011;13829;48.990;8.346;2023-12-22T01:43:03;1.90;;;0.80;;
5054;SDS011;13829;48.990;8.346;2023-12-22T01:45:30;1.37;;;0.90;;
5054;SDS011;13829;48.990;8.346;2023-12-22T01:47:57;3.93;;;0.93;;
5054;SDS011;13829;48.990;8.346;2023-12-22T01:50:24;1.90;;;0.80;;
5054;SDS011;13829;48.990;8.346;2023-12-22T01:52:54;2.83;;;0.90;;
5054;SDS011;13829;48.990;8.346;2023-12-22T01:55:21;1.43;;;0.80;;
5054;SDS011;13829;48.990;8.346;2023-12-22T01:57:49;3.43;;;1.07;;
5054;SDS011;13829;48.990;8.346;2023-12-22T02:00:17;2.17;;;0.87;;
5054;SDS011;13829;48.990;8.346;2023-12-22T02:02:45;3.07;;;1.17;;
5054;SDS011;13829;48.990;8.346;2023-12-22T02:05:13;3.20;;;1.20;;
5054;SDS011;13829;48.990;8.346;2023-12-22T02:07:41;5.27;;;1.20;;
5054;SDS011;13829;48.990;8.346;2023-12-22T02:10:10;3.07;;;1.00;;
5054;SDS011;13829;48.990;8.346;2023-12-22T02:12:37;3.53;;;1.50;;
5054;SDS011;13829;48.990;8.346;2023-12-22T02:15:04;2.70;;;1.00;;
5054;SDS011;13829;48.990;8.346;2023-12-22T02:17:37;3.60;;;1.20;;
5054;SDS011;13829;48.990;8.346;2023-12-22T02:20:13;3.83;;;1.50;;
5054;SDS011;13829;48.990;8.346;2023-12-22T02:22:42;2.33;;;1.13;;
5054;SDS011;13829;48.990;8.346;2023-12-22T02:25:09;2.27;;;0.83;;
5054;SDS011;13829;48.990;8.346;2023-12-22T02:27:38;4.10;;;1.37;;
5054;SDS011;13829;48.990;8.346;2023-12-22T02:30:14;3.33;;;1.20;;
5054;SDS011;13829;48.990;8.346;2023-12-22T02:32:54;3.63;;;1.30;;
5054;SDS011;13829;48.990;8.346;2023-12-22T02:35:26;4.63;;;1.33;;
5054;SDS011;13829;48.990;8.346;2023-12-22T02:37:57;4.57;;;1.30;;
5054;SDS011;13829;48.990;8.346;2023-12-22T02:40:26;4.77;;;1.50;;
5054;SDS011;13829;48.990;8.346;2023-12-22T02:42:54;2.83;;;1.23;;
5054;SDS011;13829;48.990;8.346;2023-12-22T02:45:21;6.33;;;1.70;;
5054;SDS011;13829;48.990;8.346;2023-12-22T02:47:48;2.83;;;1.30;;
5054;SDS011;13829;48.990;8.346;2023-12-22T02:50:15;3.63;;;1.60;;
5054;SDS011;13829;48.990;8.346;2023-12-22T02:52:43;4.90;;;1.63;;
5054;SDS011;13829;48.990;8.346;2023-12-22T02:55:11;4.73;;;1.53;;
5054;SDS011;13829;48.990;8.346;2023-12-22T02:57:38;5.70;;;1.70;;
5054;SDS011;13829;48.990;8.346;2023-12-22T03:00:06;4.77;;;1.40;;
5054;SDS011;13829;48.990;8.346;2023-12-22T03:02:34;4.63;;;1.47;;
5054;SDS011;13829;48.990;8.346;2023-12-22T03:05:01;5.27;;;1.63;;
5054;SDS011;13829;48.990;8.346;2023-12-22T03:07:28;2.87;;;1.20;;
5054;SDS011;13829;48.990;8.346;2023-12-22T03:09:55;6.00;;;1.47;;
5054;SDS011;13829;48.990;8.346;2023-12-22T03:12:24;3.93;;;1.20;;
5054;SDS011;13829;48.990;8.346;2023-12-22T03:14:51;6.03;;;1.63;;
5054;SDS011;13829;48.990;8.346;2023-12-22T03:17:18;2.77;;;1.20;;
5054;SDS011;13829;48.990;8.346;2023-12-22T03:19:45;2.53;;;1.00;;
5054;SDS011;13829;48.990;8.346;2023-12-22T03:22:12;5.47;;;1.73;;
5054;SDS011;13829;48.990;8.346;2023-12-22T03:24:39;4.87;;;1.63;;
5054;SDS011;13829;48.990;8.346;2023-12-22T03:27:06;3.40;;;1.37;;
5054;SDS011;13829;48.990;8.346;2023-12-22T03:29:34;4.73;;;1.33;;
5054;SDS011;13829;48.990;8.346;2023-12-22T03:32:01;3.30;;;1.10;;
5054;SDS011;13829;48.990;8.346;2023-12-22T03:34:29;5.37;;;1.40;;
5054;SDS011;13829;48.990;8.346;2023-12-22T03:36:56;5.00;;;1.10;;
5054;SDS011;13829;48.990;8.346;2023-12-22T03:39:23;2.17;;;1.30;;
5054;SDS011;13829;48.990;8.346;2023-12-22T03:41:50;3.70;;;1.00;;
5054;SDS011;13829;48.990;8.346;2023-12-22T03:44:17;3.73;;;0.90;;
5054;SDS011;13829;48.990;8.346;2023-12-22T03:46:45;6.67;;;1.60;;
5054;SDS011;13829;48.990;8.346;2023-12-22T03:49:13;6.20;;;1.80;;
5054;SDS011;13829;48.990;8.346;2023-12-22T03:51:40;5.83;;;1.50;;
5054;SDS011;13829;48.990;8.346;2023-12-22T03:54:07;5.33;;;1.50;;
5054;SDS011;13829;48.990;8.346;2023-12-22T03:56:35;4.40;;;1.50;;
5054;SDS011;13829;48.990;8.346;2023-12-22T03:59:02;5.90;;;2.13;;
5054;SDS011;13829;48.990;8.346;2023-12-22T04:01:29;4.57;;;1.73;;
5054;SDS011;13829;48.990;8.346;2023-12-22T04:03:57;7.97;;;1.80;;
5054;SDS011;13829;48.990;8.346;2023-12-22T04:06:24;3.77;;;1.40;;
5054;SDS011;13829;48.990;8.346;2023-12-22T04:08:52;3.73;;;1.57;;
5054;SDS011;13829;48.990;8.346;2023-12-22T04:11:19;4.73;;;1.73;;
5054;SDS011;13829;48.990;8.346;2023-12-22T04:13:46;4.60;;;1.63;;
5054;SDS011;13829;48.990;8.346;2023-12-22T04:16:13;3.57;;;1.53;;
5054;SDS011;13829;48.990;8.346;2023-12-22T04:18:40;8.07;;;1.90;;
5054;SDS011;13829;48.990;8.346;2023-12-22T04:21:09;4.13;;;1.67;;
5054;SDS011;13829;48.990;8.346;2023-12-22T04:23:36;6.73;;;1.73;;
5054;SDS011;13829;48.990;8.346;2023-12-22T04:26:03;6.67;;;1.70;;
5054;SDS011;13829;48.990;8.346;2023-12-22T04:28:30;4.57;;;1.93;;
5054;SDS011;13829;48.990;8.346;2023-12-22T04:30:57;4.53;;;1.80;;
5054;SDS011;13829;48.990;8.346;2023-12-22T04:33:24;8.63;;;2.27;;
5054;SDS011;13829;48.990;8.346;2023-12-22T04:35:51;7.07;;;1.93;;
5054;SDS011;13829;48.990;8.346;2023-12-22T04:38:19;4.27;;;1.47;;
5054;SDS011;13829;48.990;8.346;2023-12-22T04:40:46;3.40;;;1.53;;
5054;SDS011;13829;48.990;8.346;2023-12-22T04:43:13;6.33;;;1.47;;
5054;SDS011;13829;48.990;8.346;2023-12-22T04:45:40;3.37;;;1.40;;
5054;SDS011;13829;48.990;8.346;2023-12-22T04:48:07;4.30;;;1.97;;
5054;SDS011;13829;48.990;8.346;2023-12-22T04:50:34;8.07;;;1.70;;
5054;SDS011;13829;48.990;8.346;2023-12-22T04:53:01;4.33;;;1.33;;
5054;SDS011;13829;48.990;8.346;2023-12-22T04:55:30;6.50;;;1.77;;
5054;SDS011;13829;48.990;8.346;2023-12-22T04:57:57;7.83;;;2.20;;
5054;SDS011;13829;48.990;8.346;2023-12-22T05:00:24;10.40;;;2.27;;
5054;SDS011;13829;48.990;8.346;2023-12-22T05:02:51;4.77;;;2.00;;
5054;SDS011;13829;48.990;8.346;2023-12-22T05:05:19;8.20;;;2.53;;
5054;SDS011;13829;48.990;8.346;2023-12-22T05:07:46;6.10;;;2.10;;
5054;SDS011;13829;48.990;8.346;2023-12-22T05:10:13;5.70;;;2.00;;
5054;SDS011;13829;48.990;8.346;2023-12-22T05:12:41;8.27;;;3.00;;
5054;SDS011;13829;48.990;8.346;2023-12-22T05:15:08;8.23;;;2.60;;
5054;SDS011;13829;48.990;8.346;2023-12-22T05:17:36;10.13;;;3.23;;
5054;SDS011;13829;48.990;8.346;2023-12-22T05:20:05;6.77;;;2.30;;
5054;SDS011;13829;48.990;8.346;2023-12-22T05:22:35;11.87;;;3.20;;
5054;SDS011;13829;48.990;8.346;2023-12-22T05:25:03;10.57;;;2.67;;
5054;SDS011;13829;48.990;8.346;2023-12-22T05:27:32;15.13;;;3.03;;
5054;SDS011;13829;48.990;8.346;2023-12-22T05:30:00;8.40;;;2.50;;
5054;SDS011;13829;48.990;8.346;2023-12-22T05:32:29;8.27;;;2.60;;
5054;SDS011;13829;48.990;8.346;2023-12-22T05:34:56;8.10;;;3.03;;
5054;SDS011;13829;48.990;8.346;2023-12-22T05:37:23;9.50;;;2.50;;
5054;SDS011;13829;48.990;8.346;2023-12-22T05:39:50;8.97;;;2.77;;
5054;SDS011;13829;48.990;8.346;2023-12-22T05:42:17;10.80;;;3.10;;
5054;SDS011;13829;48.990;8.346;2023-12-22T05:44:44;7.03;;;2.20;;
5054;SDS011;13829;48.990;8.346;2023-12-22T05:47:16;6.23;;;2.10;;
5054;SDS011;13829;48.990;8.346;2023-12-22T05:49:43;6.10;;;2.50;;
5054;SDS011;13829;48.990;8.346;2023-12-22T05:52:11;10.27;;;2.87;;
5054;SDS011;13829;48.990;8.346;2023-12-22T05:54:38;11.17;;;3.47;;
5054;SDS011;13829;48.990;8.346;2023-12-22T05:57:06;8.13;;;2.33;;
5054;SDS011;13829;48.990;8.346;2023-12-22T05:59:33;6.70;;;2.17;;
5054;SDS011;13829;48.990;8.346;2023-12-22T06:02:00;9.50;;;3.43;;
5054;SDS011;13829;48.990;8.346;2023-12-22T06:04:29;7.20;;;2.50;;
5054;SDS011;13829;48.990;8.346;2023-12-22T06:06:56;5.17;;;2.10;;
5054;SDS011;13829;48.990;8.346;2023-12-22T06:09:23;8.07;;;2.70;;
5054;SDS011;13829;48.990;8.346;2023-12-22T06:11:50;9.27;;;2.40;;
5054;SDS011;13829;48.990;8.346;2023-12-22T06:14:17;8.20;;;2.60;;
5054;SDS011;13829;48.990;8.346;2023-12-22T06:16:44;10.50;;;2.37;;
5054;SDS011;13829;48.990;8.346;2023-12-22T06:19:11;8.73;;;2.83;;
5054;SDS011;13829;48.990;8.346;2023-12-22T06:21:40;8.67;;;2.40;;
5054;SDS011;13829;48.990;8.346;2023-12-22T06:24:07;9.53;;;2.40;;
5054;SDS011;13829;48.990;8.346;2023-12-22T06:26:34;9.50;;;2.97;;
5054;SDS011;13829;48.990;8.346;2023-12-22T06:29:01;7.30;;;2.23;;
5054;SDS011;13829;48.990;8.346;2023-12-22T06:31:28;7.17;;;2.27;;
5054;SDS011;13829;48.990;8.346;2023-12-22T06:33:55;10.20;;;3.00;;
5054;SDS011;13829;48.990;8.346;2023-12-22T06:36:25;7.90;;;2.47;;
5054;SDS011;13829;48.990;8.346;2023-12-22T06:38:54;9.63;;;3.23;;
5054;SDS011;13829;48.990;8.346;2023-12-22T06:41:23;11.90;;;2.63;;
5054;SDS011;13829;48.990;8.346;2023-12-22T06:43:51;7.93;;;2.80;;
5054;SDS011;13829;48.990;8.346;2023-12-22T06:46:19;9.73;;;3.20;;
5054;SDS011;13829;48.990;8.346;2023-12-22T06:48:48;9.47;;;2.77;;
5054;SDS011;13829;48.990;8.346;2023-12-22T06:51:18;8.97;;;2.43;;
5054;SDS011;13829;48.990;8.346;2023-12-22T06:53:46;10.07;;;2.77;;
5054;SDS011;13829;48.990;8.346;2023-12-22T06:56:19;11.50;;;3.17;;
5054;SDS011;13829;48.990;8.346;2023-12-22T06:58:48;9.93;;;2.73;;
5054;SDS011;13829;48.990;8.346;2023-12-22T07:01:20;11.23;;;3.07;;
5054;SDS011;13829;48.990;8.346;2023-12-22T07:03:49;12.30;;;3.43;;
5054;SDS011;13829;48.990;8.346;2023-12-22T07:06:16;11.80;;;3.73;;
5054;SDS011;13829;48.990;8.346;2023-12-22T07:08:45;12.27;;;3.57;;
5054;SDS011;13829;48.990;8.346;2023-12-22T07:11:24;13.20;;;3.27;;
5054;SDS011;13829;48.990;8.346;2023-12-22T07:13:51;11.10;;;3.87;;
5054;SDS011;13829;48.990;8.346;2023-12-22T07:16:18;13.40;;;4.40;;
5054;SDS011;13829;48.990;8.346;2023-12-22T07:18:45;11.73;;;4.07;;
5054;SDS011;13829;48.990;8.346;2023-12-22T07:21:15;16.20;;;4.50;;
5054;SDS011;13829;48.990;8.346;2023-12-22T07:23:44;14.30;;;4.43;;
5054;SDS011;13829;48.990;8.346;2023-12-22T07:26:11;11.70;;;3.77;;
5054;SDS011;13829;48.990;8.346;2023-12-22T07:28:39;14.27;;;4.23;;
5054;SDS011;13829;48.990;8.346;2023-12-22T07:31:06;15.73;;;4.20;;
5054;SDS011;13829;48.990;8.346;2023-12-22T07:33:33;14.67;;;4.47;;
5054;SDS011;13829;48.990;8.346;2023-12-22T07:36:00;15.70;;;3.83;;
5054;SDS011;13829;48.990;8.346;2023-12-22T07:38:28;12.93;;;3.43;;
5054;SDS011;13829;48.990;8.346;2023-12-22T07:40:55;11.30;;;3.63;;
5054;SDS011;13829;48.990;8.346;2023-12-22T07:43:22;12.40;;;3.60;;
5054;SDS011;13829;48.990;8.346;2023-12-22T07:45:50;14.50;;;4.30;;
5054;SDS011;13829;48.990;8.346;2023-12-22T07:48:18;13.63;;;4.27;;
5054;SDS011;13829;48.990;8.346;2023-12-22T07:50:45;15.13;;;3.73;;
5054;SDS011;13829;48.990;8.346;2023-12-22T07:53:12;11.33;;;3.10;;
5054;SDS011;13829;48.990;8.346;2023-12-22T07:55:39;11.53;;;3.63;;
5054;SDS011;13829;48.990;8.346;2023-12-22T07:58:06;10.17;;;3.60;;
5054;SDS011;13829;48.990;8.346;2023-12-22T08:00:33;13.17;;;4.23;;
5054;SDS011;13829;48.990;8.346;2023-12-22T08:03:02;15.70;;;3.60;;
5054;SDS011;13829;48.990;8.346;2023-12-22T08:05:30;11.37;;;3.40;;
5054;SDS011;13829;48.990;8.346;2023-12-22T08:07:58;12.50;;;3.60;;
5054;SDS011;13829;48.990;8.346;2023-12-22T08:10:25;13.80;;;4.00;;
5054;SDS011;13829;48.990;8.346;2023-12-22T08:12:53;16.57;;;3.37;;
5054;SDS011;13829;48.990;8.346;2023-12-22T08:15:20;17.13;;;4.50;;
5054;SDS011;13829;48.990;8.346;2023-12-22T08:17:47;13.00;;;3.57;;
5054;SDS011;13829;48.990;8.346;2023-12-22T08:20:17;13.57;;;3.30;;
5054;SDS011;13829;48.990;8.346;2023-12-22T08:22:45;10.93;;;3.60;;
5054;SDS011;13829;48.990;8.346;2023-12-22T08:25:12;13.40;;;3.80;;
5054;SDS011;13829;48.990;8.346;2023-12-22T08:27:40;16.23;;;4.20;;
5054;SDS011;13829;48.990;8.346;2023-12-22T08:30:08;20.73;;;4.13;;
5054;SDS011;13829;48.990;8.346;2023-12-22T08:32:36;8.30;;;3.20;;
5054;SDS011;13829;48.990;8.346;2023-12-22T08:35:03;16.43;;;4.37;;
5054;SDS011;13829;48.990;8.346;2023-12-22T08:37:33;9.37;;;3.50;;
5054;SDS011;13829;48.990;8.346;2023-12-22T08:40:00;14.07;;;3.67;;
5054;SDS011;13829;48.990;8.346;2023-12-22T08:42:27;12.00;;;3.50;;
5054;SDS011;13829;48.990;8.346;2023-12-22T08:44:55;12.43;;;4.00;;
5054;SDS011;13829;48.990;8.346;2023-12-22T08:47:22;13.97;;;3.73;;
5054;SDS011;13829;48.990;8.346;2023-12-22T08:49:50;12.40;;;3.30;;
5054;SDS011;13829;48.990;8.346;2023-12-22T08:52:17;13.80;;;3.43;;
5054;SDS011;13829;48.990;8.346;2023-12-22T08:54:45;11.67;;;3.50;;
5054;SDS011;13829;48.990;8.346;2023-12-22T08:57:12;13.00;;;4.40;;
5054;SDS011;13829;48.990;8.346;2023-12-22T08:59:39;17.03;;;4.17;;
5054;SDS011;13829;48.990;8.346;2023-12-22T09:02:06;11.37;;;3.83;;
5054;SDS011;13829;48.990;8.346;2023-12-22T09:04:33;15.07;;;3.93;;
5054;SDS011;13829;48.990;8.346;2023-12-22T09:07:00;12.10;;;3.40;;
5054;SDS011;13829;48.990;8.346;2023-12-22T09:09:27;18.03;;;4.03;;
5054;SDS011;13829;48.990;8.346;2023-12-22T09:11:56;11.13;;;3.57;;
5054;SDS011;13829;48.990;8.346;2023-12-22T09:14:23;13.83;;;3.73;;
5054;SDS011;13829;48.990;8.346;2023-12-22T09:16:50;8.37;;;3.00;;
5054;SDS011;13829;48.990;8.346;2023-12-22T09:19:18;14.90;;;3.73;;
5054;SDS011;13829;48.990;8.346;2023-12-22T09:21:46;13.53;;;4.03;;
5054;SDS011;13829;48.990;8.346;2023-12-22T09:24:14;16.77;;;4.13;;
5054;SDS011;13829;48.990;8.346;2023-12-22T09:26:42;14.17;;;4.00;;
5054;SDS011;13829;48.990;8.346;2023-12-22T09:29:10;17.73;;;3.67;;
5054;SDS011;13829;48.990;8.346;2023-12-22T09:31:37;12.47;;;3.50;;
5054;SDS011;13829;48.990;8.346;2023-12-22T09:34:04;19.73;;;3.90;;
5054;SDS011;13829;48.990;8.346;2023-12-22T09:36:31;16.73;;;4.23;;
5054;SDS011;13829;48.990;8.346;2023-12-22T09:38:58;17.50;;;4.00;;
5054;SDS011;13829;48.990;8.346;2023-12-22T09:41:25;17.80;;;4.60;;
5054;SDS011;13829;48.990;8.346;2023-12-22T09:43:53;20.23;;;4.33;;
5054;SDS011;13829;48.990;8.346;2023-12-22T09:46:27;11.60;;;3.93;;
5054;SDS011;13829;48.990;8.346;2023-12-22T09:48:57;14.40;;;4.37;;
5054;SDS011;13829;48.990;8.346;2023-12-22T09:51:25;23.40;;;3.90;;
5054;SDS011;13829;48.990;8.346;2023-12-22T09:53:54;13.60;;;4.20;;
5054;SDS011;13829;48.990;8.346;2023-12-22T09:56:24;12.67;;;3.90;;
5054;SDS011;13829;48.990;8.346;2023-12-22T09:58:53;11.83;;;3.80;;
5054;SDS011;13829;48.990;8.346;2023-12-22T10:01:22;12.90;;;4.67;;
5054;SDS011;13829;48.990;8.346;2023-12-22T10:03:51;16.93;;;4.60;;
5054;SDS011;13829;48.990;8.346;2023-12-22T10:06:19;11.30;;;3.73;;
5054;SDS011;13829;48.990;8.346;2023-12-22T10:08:46;14.73;;;4.40;;
5054;SDS011;13829;48.990;8.346;2023-12-22T10:11:16;18.03;;;3.67;;
5054;SDS011;13829;48.990;8.346;2023-12-22T10:13:45;12.17;;;3.57;;
5054;SDS011;13829;48.990;8.346;2023-12-22T10:16:17;11.67;;;4.33;;
5054;SDS011;13829;48.990;8.346;2023-12-22T10:18:45;15.87;;;3.67;;
5054;SDS011;13829;48.990;8.346;2023-12-22T10:21:13;12.97;;;3.80;;
5054;SDS011;13829;48.990;8.346;2023-12-22T10:23:40;12.87;;;4.07;;
5054;SDS011;13829;48.990;8.346;2023-12-22T10:26:07;9.73;;;3.40;;
5054;SDS011;13829;48.990;8.346;2023-12-22T10:28:36;16.60;;;4.13;;
5054;SDS011;13829;48.990;8.346;2023-12-22T10:31:06;13.30;;;4.40;;
5054;SDS011;13829;48.990;8.346;2023-12-22T10:33:33;15.33;;;3.77;;
5054;SDS011;13829;48.990;8.346;2023-12-22T10:36:00;15.70;;;4.53;;
5054;SDS011;13829;48.990;8.346;2023-12-22T10:38:33;10.63;;;3.50;;
5054;SDS011;13829;48.990;8.346;2023-12-22T10:41:00;14.97;;;3.97;;
5054;SDS011;13829;48.990;8.346;2023-12-22T10:43:28;12.60;;;3.70;;
5054;SDS011;13829;48.990;8.346;2023-12-22T10:45:55;12.30;;;3.80;;
5054;SDS011;13829;48.990;8.346;2023-12-22T10:48:22;16.27;;;4.20;;
5054;SDS011;13829;48.990;8.346;2023-12-22T10:50:49;13.87;;;4.00;;
5054;SDS011;13829;48.990;8.346;2023-12-22T10:53:16;13.00;;;4.27;;
5054;SDS011;13829;48.990;8.346;2023-12-22T10:55:47;15.90;;;3.90;;
5054;SDS011;13829;48.990;8.346;2023-12-22T10:58:15;13.37;;;3.80;;
5054;SDS011;13829;48.990;8.346;2023-12-22T11:00:44;14.17;;;4.30;;
5054;SDS011;13829;48.990;8.346;2023-12-22T11:03:16;13.60;;;3.70;;
5054;SDS011;13829;48.990;8.346;2023-12-22T11:05:45;11.53;;;3.50;;
5054;SDS011;13829;48.990;8.346;2023-12-22T11:08:14;14.33;;;4.20;;
5054;SDS011;13829;48.990;8.346;2023-12-22T11:10:45;9.23;;;3.23;;
5054;SDS011;13829;48.990;8.346;2023-12-22T11:13:24;13.87;;;3.57;;
5054;SDS011;13829;48.990;8.346;2023-12-22T11:15:51;9.97;;;3.17;;
5054;SDS011;13829;48.990;8.346;2023-12-22T11:18:20;15.77;;;3.70;;
5054;SDS011;13829;48.990;8.346;2023-12-22T11:20:50;9.70;;;3.53;;
5054;SDS011;13829;48.990;8.346;2023-12-22T11:23:18;10.10;;;3.47;;
5054;SDS011;13829;48.990;8.346;2023-12-22T11:25:47;12.07;;;4.23;;
5054;SDS011;13829;48.990;8.346;2023-12-22T11:28:18;7.67;;;3.30;;
5054;SDS011;13829;48.990;8.346;2023-12-22T11:30:49;9.17;;;3.20;;
5054;SDS011;13829;48.990;8.346;2023-12-22T11:33:18;12.37;;;3.70;;
5054;SDS011;13829;48.990;8.346;2023-12-22T11:35:46;9.87;;;2.73;;
5054;SDS011;13829;48.990;8.346;2023-12-22T11:38:15;8.03;;;2.83;;
5054;SDS011;13829;48.990;8.346;2023-12-22T11:40:42;11.63;;;3.20;;
5054;SDS011;13829;48.990;8.346;2023-12-22T11:43:10;10.37;;;2.77;;
5054;SDS011;13829;48.990;8.346;2023-12-22T11:45:41;6.83;;;2.30;;
5054;SDS011;13829;48.990;8.346;2023-12-22T11:48:09;10.53;;;2.80;;
5054;SDS011;13829;48.990;8.346;2023-12-22T11:50:37;8.70;;;2.33;;
5054;SDS011;13829;48.990;8.346;2023-12-22T11:53:20;8.80;;;2.47;;
5054;SDS011;13829;48.990;8.346;2023-12-22T11:55:58;7.33;;;2.50;;
5054;SDS011;13829;48.990;8.346;2023-12-22T11:58:35;8.03;;;2.73;;
5054;SDS011;13829;48.990;8.346;2023-12-22T12:01:05;7.23;;;2.40;;
5054;SDS011;13829;48.990;8.346;2023-12-22T12:03:35;6.97;;;2.23;;
5054;SDS011;13829;48.990;8.346;2023-12-22T12:06:09;6.57;;;1.93;;
5054;SDS011;13829;48.990;8.346;2023-12-22T12:08:41;7.57;;;2.30;;
5054;SDS011;13829;48.990;8.346;2023-12-22T12:11:08;9.33;;;2.70;;
5054;SDS011;13829;48.990;8.346;2023-12-22T12:13:38;5.53;;;2.50;;
5054;SDS011;13829;48.990;8.346;2023-12-22T12:16:10;5.47;;;2.20;;
5054;SDS011;13829;48.990;8.346;2023-12-22T12:18:38;5.97;;;2.17;;
5054;SDS011;13829;48.990;8.346;2023-12-22T12:21:06;3.37;;;1.73;;
5054;SDS011;13829;48.990;8.346;2023-12-22T12:23:34;6.80;;;2.10;;
5054;SDS011;13829;48.990;8.346;2023-12-22T12:26:02;7.07;;;2.37;;
5054;SDS011;13829;48.990;8.346;2023-12-22T12:28:29;5.40;;;2.07;;
5054;SDS011;13829;48.990;8.346;2023-12-22T12:31:02;6.87;;;2.53;;
5054;SDS011;13829;48.990;8.346;2023-12-22T12:33:32;6.20;;;2.10;;
5054;SDS011;13829;48.990;8.346;2023-12-22T12:36:02;4.57;;;2.17;;
5054;SDS011;13829;48.990;8.346;2023-12-22T12:38:36;4.13;;;1.90;;
5054;SDS011;13829;48.990;8.346;2023-12-22T12:41:11;5.73;;;1.70;;
5054;SDS011;13829;48.990;8.346;2023-12-22T12:43:42;4.57;;;1.70;;
5054;SDS011;13829;48.990;8.346;2023-12-22T12:46:11;4.67;;;1.40;;
5054;SDS011;13829;48.990;8.346;2023-12-22T12:48:38;2.10;;;1.43;;
5054;SDS011;13829;48.990;8.346;2023-12-22T12:51:05;2.13;;;1.33;;
5054;SDS011;13829;48.990;8.346;2023-12-22T12:53:33;2.13;;;1.33;;
5054;SDS011;13829;48.990;8.346;2023-12-22T12:56:03;5.03;;;1.20;;
5054;SDS011;13829;48.990;8.346;2023-12-22T12:58:31;2.70;;;1.10;;
5054;SDS011;13829;48.990;8.346;2023-12-22T13:01:06;3.10;;;1.33;;
5054;SDS011;13829;48.990;8.346;2023-12-22T13:06:20;1.80;;;0.90;;
5054;SDS011;13829;48.990;8.346;2023-12-22T13:08:47;1.17;;;0.97;;
5054;SDS011;13829;48.990;8.346;2023-12-22T13:11:16;1.73;;;0.80;;
5054;SDS011;13829;48.990;8.346;2023-12-22T13:13:46;1.00;;;0.70;;
5054;SDS011;13829;48.990;8.346;2023-12-22T13:16:16;1.10;;;0.80;;
5054;SDS011;13829;48.990;8.346;2023-12-22T13:18:45;1.47;;;0.80;;
5054;SDS011;13829;48.990;8.346;2023-12-22T13:21:14;1.40;;;0.90;;
5054;SDS011;13829;48.990;8.346;2023-12-22T13:23:41;1.07;;;0.80;;
5054;SDS011;13829;48.990;8.346;2023-12-22T13:26:17;2.83;;;0.70;;
5054;SDS011;13829;48.990;8.346;2023-12-22T13:28:45;3.73;;;1.10;;
5054;SDS011;13829;48.990;8.346;2023-12-22T13:31:12;1.50;;;1.03;;
5054;SDS011;13829;48.990;8.346;2023-12-22T13:33:43;2.40;;;1.00;;
5054;SDS011;13829;48.990;8.346;2023-12-22T13:36:10;1.77;;;0.80;;
5054;SDS011;13829;48.990;8.346;2023-12-22T13:38:44;2.63;;;0.90;;
5054;SDS011;13829;48.990;8.346;2023-12-22T13:41:12;0.60;;;0.60;;
5054;SDS011;13829;48.990;8.346;2023-12-22T13:43:41;1.87;;;0.70;;
5054;SDS011;13829;48.990;8.346;2023-12-22T13:46:09;0.90;;;0.80;;
5054;SDS011;13829;48.990;8.346;2023-12-22T13:48:37;0.73;;;0.73;;
5054;SDS011;13829;48.990;8.346;2023-12-22T13:51:04;1.33;;;0.73;;
5054;SDS011;13829;48.990;8.346;2023-12-22T13:53:32;0.90;;;0.90;;
5054;SDS011;13829;48.990;8.346;2023-12-22T13:56:00;1.13;;;0.60;;
5054;SDS011;13829;48.990;8.346;2023-12-22T13:58:28;0.90;;;0.80;;
5054;SDS011;13829;48.990;8.346;2023-12-22T14:00:54;1.20;;;0.70;;
5054;SDS011;13829;48.990;8.346;2023-12-22T14:03:22;0.97;;;0.70;;
5054;SDS011;13829;48.990;8.346;2023-12-22T14:05:49;1.77;;;1.00;;
5054;SDS011;13829;48.990;8.346;2023-12-22T14:08:18;0.67;;;0.53;;
5054;SDS011;13829;48.990;8.346;2023-12-22T14:10:45;0.73;;;0.50;;
5054;SDS011;13829;48.990;8.346;2023-12-22T14:13:14;1.77;;;1.23;;
5054;SDS011;13829;48.990;8.346;2023-12-22T14:15:41;1.13;;;0.70;;
5054;SDS011;13829;48.990;8.346;2023-12-22T14:18:09;1.80;;;1.10;;
5054;SDS011;13829;48.990;8.346;2023-12-22T14:20:36;2.90;;;1.73;;
5054;SDS011;13829;48.990;8.346;2023-12-22T14:23:03;1.97;;;1.00;;
5054;SDS011;13829;48.990;8.346;2023-12-22T14:25:30;1.00;;;0.80;;
5054;SDS011;13829;48.990;8.346;2023-12-22T14:27:57;1.43;;;1.00;;
5054;SDS011;13829;48.990;8.346;2023-12-22T14:30:26;2.13;;;1.03;;
5054;SDS011;13829;48.990;8.346;2023-12-22T14:32:53;4.33;;;2.23;;
5054;SDS011;13829;48.990;8.346;2023-12-22T14:35:20;5.60;;;3.40;;
5054;SDS011;13829;48.990;8.346;2023-12-22T14:37:47;5.33;;;3.33;;
5054;SDS011;13829;48.990;8.346;2023-12-22T14:40:14;12.10;;;6.70;;
5054;SDS011;13829;48.990;8.346;2023-12-22T14:42:41;14.10;;;7.60;;
5054;SDS011;13829;48.990;8.346;2023-12-22T14:45:08;2.97;;;2.10;;
5054;SDS011;13829;48.990;8.346;2023-12-22T14:47:37;0.97;;;0.80;;
5054;SDS011;13829;48.990;8.346;2023-12-22T14:50:04;1.47;;;0.63;;
5054;SDS011;13829;48.990;8.346;2023-12-22T14:52:32;1.43;;;1.23;;
5054;SDS011;13829;48.990;8.346;2023-12-22T14:55:00;1.33;;;1.03;;
5054;SDS011;13829;48.990;8.346;2023-12-22T14:57:27;1.03;;;0.80;;
5054;SDS011;13829;48.990;8.346;2023-12-22T14:59:54;5.50;;;2.17;;
5054;SDS011;13829;48.990;8.346;2023-12-22T15:02:22;1.43;;;1.27;;
5054;SDS011;13829;48.990;8.346;2023-12-22T15:04:50;1.50;;;1.30;;
5054;SDS011;13829;48.990;8.346;2023-12-22T15:07:17;2.20;;;1.33;;